createdAt,value
2022-09-12T00:00:34.260Z,99856.31
2022-09-12T00:04:02.293Z,99855.24
2022-09-12T00:06:48.946Z,99854.20
2022-09-12T00:09:33.512Z,99852.59
2022-09-12T00:12:14.278Z,99852.90
2022-09-12T00:15:11.048Z,99851.02
2022-09-12T00:17:42.802Z,99849.30
2022-09-12T00:20:13.067Z,99846.77
2022-09-12T00:22:53.523Z,99841.81
2022-09-12T00:25:53.359Z,99838.39
2022-09-12T00:28:28.382Z,99835.68
2022-09-12T00:31:23.583Z,99832.33
2022-09-12T00:34:15.720Z,99830.84
2022-09-12T00:37:03.780Z,99835.13
2022-09-12T00:39:43.671Z,99832.63
2022-09-12T00:42:47.524Z,99832.43
2022-09-12T00:45:52.351Z,99830.46
2022-09-12T00:48:49.647Z,99830.26
2022-09-12T00:52:21.051Z,99831.08
2022-09-12T00:55:49.426Z,99832.02
2022-09-12T00:58:58.336Z,99833.18
2022-09-12T01:01:54.753Z,99831.48
2022-09-12T01:05:08.207Z,99830.56
2022-09-12T01:11:26.870Z,99827.14
2022-09-12T01:15:02.003Z,99825.70
2022-09-12T01:18:41.375Z,99827.45
2022-09-12T01:22:16.246Z,99826.54
2022-09-12T01:26:06.142Z,99826.89
2022-09-12T01:29:41.606Z,99828.56
2022-09-12T01:37:08.621Z,99829.64
2022-09-12T01:40:40.992Z,99829.71
2022-09-12T01:43:38.463Z,99835.86
2022-09-12T01:47:11.759Z,99836.84
2022-09-12T01:50:48.982Z,99838.64
2022-09-12T01:54:23.232Z,99834.92
2022-09-12T01:57:53.124Z,99831.83
2022-09-12T02:01:20.935Z,99828.77
2022-09-12T02:04:34.272Z,99827.31
2022-09-12T02:07:43.318Z,99827.41
2022-09-12T02:12:00.831Z,99826.95
2022-09-12T02:15:28.599Z,99824.62
2022-09-12T02:18:19.437Z,99824.52
2022-09-12T02:20:58.136Z,99822.80
2022-09-12T02:23:55.496Z,99819.70
2022-09-12T02:27:27.967Z,99816.91
2022-09-12T02:30:29.825Z,99819.37
2022-09-12T02:33:55.249Z,99823.52
2022-09-12T02:37:42.848Z,99823.20
2022-09-12T02:40:49.875Z,99826.35
2022-09-12T02:43:44.292Z,99821.75
2022-09-12T02:47:33.998Z,99822.94
2022-09-12T02:58:04.580Z,99821.70
2022-09-12T03:01:44.847Z,99825.62
2022-09-12T03:04:30.096Z,99822.09
2022-09-12T03:11:29.078Z,99821.61
2022-09-12T03:14:49.438Z,99825.23
2022-09-12T03:18:05.290Z,99827.23
2022-09-12T03:21:44.878Z,99826.99
2022-09-12T03:25:17.168Z,99824.98
2022-09-12T03:28:26.187Z,99829.74
2022-09-12T03:31:49.246Z,99825.89
2022-09-12T03:34:41.221Z,99830.01
2022-09-12T03:37:42.072Z,99830.45
2022-09-12T03:41:18.759Z,99828.56
2022-09-12T03:44:04.758Z,99826.94
2022-09-12T03:47:13.143Z,99825.35
2022-09-12T03:50:11.713Z,99829.60
2022-09-12T03:53:03.551Z,99831.58
2022-09-12T03:56:02.898Z,99830.50
2022-09-12T03:58:43.968Z,99826.02
2022-09-12T04:01:57.989Z,99826.89
2022-09-12T04:05:11.410Z,99827.25
2022-09-12T04:08:25.627Z,99825.18
2022-09-12T04:11:34.400Z,99827.25
2022-09-12T04:18:32.651Z,99827.60
2022-09-12T04:25:34.606Z,99824.73
2022-09-12T04:28:38.407Z,99824.08
2022-09-12T04:32:09.528Z,99825.04
2022-09-12T04:35:13.684Z,99825.00
2022-09-12T04:38:24.659Z,99828.44
2022-09-12T04:41:23.980Z,99830.97
2022-09-12T04:44:46.243Z,99829.27
2022-09-12T04:47:55.254Z,99832.52
2022-09-12T04:50:44.971Z,99834.83
2022-09-12T04:54:02.405Z,99838.30
2022-09-12T04:57:15.541Z,99838.98
2022-09-12T05:00:47.620Z,99842.00
2022-09-12T05:03:45.074Z,99836.89
2022-09-12T05:07:14.992Z,99837.69
2022-09-12T05:10:15.972Z,99839.45
2022-09-12T05:13:23.846Z,99841.52
2022-09-12T05:16:50.212Z,99841.20
2022-09-12T05:23:01.944Z,99847.30
2022-09-12T05:26:31.642Z,99847.02
2022-09-12T05:30:36.366Z,99848.30
2022-09-12T05:33:50.125Z,99856.31
2022-09-12T05:37:26.549Z,99860.34
2022-09-12T05:41:12.349Z,99863.70
2022-09-12T05:43:44.085Z,99864.27
2022-09-12T05:46:20.382Z,99867.88
2022-09-12T05:48:53.718Z,99874.88
2022-09-12T05:51:27.322Z,99878.12
2022-09-12T05:53:58.804Z,99879.06
2022-09-12T05:56:30.725Z,99881.16
2022-09-12T05:59:04.880Z,99878.20
2022-09-12T06:01:35.243Z,99887.49
2022-09-12T06:04:18.987Z,99885.14
2022-09-12T06:07:36.362Z,99876.35
2022-09-12T06:11:02.414Z,99872.46
2022-09-12T06:13:55.638Z,99877.95
2022-09-12T06:16:59.714Z,99881.02
2022-09-12T06:19:51.091Z,99885.38
2022-09-12T06:22:38.101Z,99885.24
2022-09-12T06:25:17.092Z,99884.86
2022-09-12T06:28:49.801Z,99892.47
2022-09-12T06:31:57.515Z,99895.75
2022-09-12T06:34:44.055Z,99899.61
2022-09-12T06:38:28.374Z,99894.91
2022-09-12T06:42:01.227Z,99893.29
2022-09-12T06:48:52.060Z,99895.37
2022-09-12T06:51:38.644Z,99895.98
2022-09-12T06:54:17.214Z,99896.70
2022-09-12T06:56:48.854Z,99894.17
2022-09-12T06:59:26.883Z,99891.60
2022-09-12T07:01:59.662Z,99889.95
2022-09-12T07:04:28.522Z,99889.08
2022-09-12T07:06:56.967Z,99894.41
2022-09-12T07:09:28.436Z,99890.65
2022-09-12T07:12:11.492Z,99896.65
2022-09-12T07:14:41.586Z,99897.23
2022-09-12T07:17:10.275Z,99902.23
2022-09-12T07:19:39.061Z,99910.20
2022-09-12T07:22:15.005Z,99911.80
2022-09-12T07:24:43.474Z,99910.56
2022-09-12T07:27:27.516Z,99906.55
2022-09-12T07:29:56.514Z,99908.27
2022-09-12T07:32:25.052Z,99910.64
2022-09-12T07:34:59.243Z,99913.38
2022-09-12T07:37:40.479Z,99913.33
2022-09-12T07:40:14.997Z,99917.58
2022-09-12T07:42:46.104Z,99916.29
2022-09-12T07:45:14.363Z,99914.04
2022-09-12T07:47:42.956Z,99914.80
2022-09-12T07:50:12.570Z,99915.59
2022-09-12T07:53:04.006Z,99916.19
2022-09-12T07:55:33.089Z,99914.05
2022-09-12T07:58:29.502Z,99909.77
2022-09-12T08:01:25.043Z,99912.55
2022-09-12T08:04:01.854Z,99913.61
2022-09-12T08:06:40.017Z,99914.27
2022-09-12T08:09:09.416Z,99913.92
2022-09-12T08:11:46.861Z,99914.91
2022-09-12T08:14:18.044Z,99920.40
2022-09-12T08:16:46.581Z,99920.55
2022-09-12T08:19:15.162Z,99920.90
2022-09-12T08:21:47.624Z,99921.15
2022-09-12T08:24:21.540Z,99920.13
2022-09-12T08:26:50.267Z,99917.02
2022-09-12T08:29:25.269Z,99917.34
2022-09-12T08:32:03.950Z,99918.02
2022-09-12T08:34:32.660Z,99921.83
2022-09-12T08:37:02.079Z,99917.73
2022-09-12T08:39:34.072Z,99919.23
2022-09-12T08:42:05.959Z,99919.41
2022-09-12T08:45:17.396Z,99918.86
2022-09-12T08:47:47.295Z,99916.07
2022-09-12T08:50:20.040Z,99919.35
2022-09-12T08:52:59.266Z,99916.66
2022-09-12T08:55:27.712Z,99913.95
2022-09-12T08:57:57.598Z,99911.79
2022-09-12T09:00:40.369Z,99907.94
2022-09-12T09:03:39.058Z,99907.07
2022-09-12T09:06:20.145Z,99905.29
2022-09-12T09:09:04.048Z,99904.12
2022-09-12T09:12:07.923Z,99909.36
2022-09-12T09:15:15.184Z,99905.23
2022-09-12T09:17:51.323Z,99905.59
2022-09-12T09:20:59.872Z,99903.58
2022-09-12T09:23:39.351Z,99907.97
2022-09-12T09:26:16.118Z,99905.06
2022-09-12T09:28:53.457Z,99904.29
2022-09-12T09:31:27.693Z,99902.16
2022-09-12T09:33:57.718Z,99903.86
2022-09-12T09:37:17.139Z,99904.20
2022-09-12T09:40:36.125Z,99903.52
2022-09-12T09:43:13.760Z,99901.05
2022-09-12T09:45:47.814Z,99897.35
2022-09-12T09:48:33.126Z,99899.88
2022-09-12T09:51:15.286Z,99902.50
2022-09-12T09:54:11.612Z,99897.61
2022-09-12T09:56:43.662Z,99898.98
2022-09-12T09:59:27.667Z,99895.02
2022-09-12T10:02:23.866Z,99894.55
2022-09-12T10:04:58.607Z,99896.71
2022-09-12T10:07:27.908Z,99900.14
2022-09-12T10:10:18.151Z,99899.72
2022-09-12T10:12:46.414Z,99893.23
2022-09-12T10:15:23.933Z,99898.20
2022-09-12T10:17:56.744Z,99903.30
2022-09-12T10:21:07.166Z,99898.61
2022-09-12T10:23:44.437Z,99898.41
2022-09-12T10:26:22.388Z,99896.31
2022-09-12T10:28:56.823Z,99897.00
2022-09-12T10:31:36.399Z,99897.39
2022-09-12T10:34:05.913Z,99897.80
2022-09-12T10:36:55.286Z,99894.20
2022-09-12T10:39:45.601Z,99897.23
2022-09-12T10:42:23.264Z,99895.55
2022-09-12T10:44:56.027Z,99893.03
2022-09-12T10:47:51.879Z,99895.58
2022-09-12T10:51:00.234Z,99899.04
2022-09-12T10:53:52.739Z,99896.55
2022-09-12T10:56:37.282Z,99899.23
2022-09-12T10:59:26.926Z,99897.04
2022-09-12T11:02:36.735Z,99894.44
2022-09-12T11:05:46.396Z,99894.56
2022-09-12T11:08:31.090Z,99892.21
2022-09-12T11:11:35.000Z,99895.25
2022-09-12T11:14:28.072Z,99892.33
2022-09-12T11:17:14.952Z,99896.91
2022-09-12T11:20:02.606Z,99894.38
2022-09-12T11:22:44.758Z,99896.63
2022-09-12T11:25:31.286Z,99893.18
2022-09-12T11:28:16.062Z,99893.61
2022-09-12T11:31:42.047Z,99897.17
2022-09-12T11:35:00.127Z,99891.75
2022-09-12T11:38:01.127Z,99891.94
2022-09-12T11:41:18.718Z,99890.73
2022-09-12T11:43:54.783Z,99886.87
2022-09-12T11:46:33.530Z,99888.44
2022-09-12T11:49:19.936Z,99887.08
2022-09-12T11:51:58.647Z,99882.98
2022-09-12T11:54:51.478Z,99881.04
2022-09-12T11:57:39.728Z,99880.91
2022-09-12T12:00:19.783Z,99886.23
2022-09-12T12:03:11.565Z,99891.39
2022-09-12T12:06:21.708Z,99890.83
2022-09-12T12:09:08.805Z,99886.64
2022-09-12T12:11:59.673Z,99884.68
2022-09-12T12:14:55.798Z,99883.48
2022-09-12T12:17:34.689Z,99879.73
2022-09-12T12:20:20.349Z,99876.98
2022-09-12T12:23:48.295Z,99874.92
2022-09-12T12:26:40.878Z,99872.95
2022-09-12T12:29:40.305Z,99871.77
2022-09-12T12:32:18.959Z,99871.89
2022-09-12T12:34:48.588Z,99868.61
2022-09-12T12:37:21.564Z,99864.27
2022-09-12T12:40:01.648Z,99864.10
2022-09-12T12:42:34.838Z,99866.08
2022-09-12T12:45:10.320Z,99862.99
2022-09-12T12:47:46.491Z,99859.11
2022-09-12T12:50:24.927Z,99851.89
2022-09-12T12:53:25.402Z,99852.48
2022-09-12T12:56:05.786Z,99848.47
2022-09-12T12:59:20.947Z,99845.59
2022-09-12T13:02:07.709Z,99846.60
2022-09-12T13:04:36.826Z,99842.77
2022-09-12T13:07:30.249Z,99845.63
2022-09-12T13:10:12.242Z,99847.33
2022-09-12T13:13:15.215Z,99842.02
2022-09-12T13:17:04.156Z,99843.24
2022-09-12T13:20:33.772Z,99839.40
2022-09-12T13:23:53.234Z,99841.01
2022-09-12T13:27:13.214Z,99843.82
2022-09-12T13:34:08.490Z,99841.42
2022-09-12T13:37:21.513Z,99839.95
2022-09-12T13:40:25.272Z,99837.88
2022-09-12T13:44:01.521Z,99834.98
2022-09-12T13:51:12.767Z,99820.64
2022-09-12T14:01:53.043Z,99815.48
2022-09-12T14:05:17.594Z,99816.10
2022-09-12T14:11:57.212Z,99819.67
2022-09-12T14:17:29.946Z,99810.65
2022-09-12T14:20:35.388Z,99811.10
2022-09-12T14:23:33.432Z,99812.27
2022-09-12T14:26:22.887Z,99808.98
2022-09-12T14:29:09.164Z,99803.96
2022-09-12T14:31:42.390Z,99805.85
2022-09-12T14:34:27.697Z,99805.93
2022-09-12T14:37:18.192Z,99799.97
2022-09-12T14:39:58.894Z,99799.70
2022-09-12T14:42:42.844Z,99802.88
2022-09-12T14:45:19.281Z,99805.97
2022-09-12T14:47:51.501Z,99799.33
2022-09-12T14:50:52.090Z,99803.47
2022-09-12T14:53:38.710Z,99803.34
2022-09-12T14:56:13.373Z,99803.84
2022-09-12T14:58:44.960Z,99803.13
2022-09-12T15:01:13.491Z,99803.30
2022-09-12T15:03:50.050Z,99802.50
2022-09-12T15:06:41.473Z,99796.11
2022-09-12T15:09:28.163Z,99800.17
2022-09-12T15:11:59.884Z,99800.55
2022-09-12T15:14:33.060Z,99800.53
2022-09-12T15:17:21.733Z,99799.05
2022-09-12T15:20:11.306Z,99797.73
2022-09-12T15:22:55.695Z,99795.16
2022-09-12T15:25:41.495Z,99792.68
2022-09-12T15:28:21.427Z,99793.91
2022-09-12T15:30:52.436Z,99792.30
2022-09-12T15:33:37.133Z,99789.02
2022-09-12T15:36:14.074Z,99786.98
2022-09-12T15:38:43.762Z,99788.67
2022-09-12T15:41:50.979Z,99786.19
2022-09-12T15:44:20.383Z,99783.14
2022-09-12T15:46:49.045Z,99783.35
2022-09-12T15:49:17.560Z,99781.63
2022-09-12T15:51:48.317Z,99779.50
2022-09-12T15:54:25.967Z,99779.34
2022-09-12T15:56:57.715Z,99784.87
2022-09-12T15:59:26.116Z,99785.05
2022-09-12T16:01:56.743Z,99783.41
2022-09-12T16:04:27.366Z,99785.73
2022-09-12T16:06:57.226Z,99786.61
2022-09-12T16:09:29.123Z,99784.86
2022-09-12T16:12:00.501Z,99780.08
2022-09-12T16:14:29.283Z,99781.67
2022-09-12T16:16:57.529Z,99777.70
2022-09-12T16:19:26.137Z,99775.66
2022-09-12T16:21:59.871Z,99771.05
2022-09-12T16:24:28.241Z,99769.31
2022-09-12T16:27:01.249Z,99765.02
2022-09-12T16:29:34.397Z,99768.61
2022-09-12T16:32:03.216Z,99766.58
2022-09-12T16:34:36.064Z,99769.21
2022-09-12T16:37:07.647Z,99773.02
2022-09-12T16:39:38.896Z,99774.10
2022-09-12T16:42:07.426Z,99772.39
2022-09-12T16:44:38.078Z,99773.27
2022-09-12T16:47:06.763Z,99769.46
2022-09-12T16:49:37.603Z,99767.26
2022-09-12T16:52:07.109Z,99765.23
2022-09-12T16:54:35.809Z,99764.86
2022-09-12T16:57:08.442Z,99763.48
2022-09-12T16:59:40.009Z,99758.63
2022-09-12T17:02:14.993Z,99752.69
2022-09-12T17:04:46.889Z,99751.45
2022-09-12T17:07:20.500Z,99748.11
2022-09-12T17:09:48.868Z,99748.09
2022-09-12T17:12:29.576Z,99751.84
2022-09-12T17:15:09.936Z,99755.88
2022-09-12T17:17:41.515Z,99756.70
2022-09-12T17:20:09.810Z,99756.40
2022-09-12T17:22:41.050Z,99758.52
2022-09-12T17:25:18.981Z,99754.81
2022-09-12T17:27:51.769Z,99754.74
2022-09-12T17:30:20.892Z,99754.24
2022-09-12T17:33:00.721Z,99756.29
2022-09-12T17:35:50.352Z,99757.21
2022-09-12T17:38:24.561Z,99759.29
2022-09-12T17:41:06.440Z,99759.52
2022-09-12T17:43:48.515Z,99764.42
2022-09-12T17:46:28.076Z,99765.71
2022-09-12T17:48:58.064Z,99766.68
2022-09-12T17:51:31.449Z,99766.02
2022-09-12T17:54:03.800Z,99768.30
2022-09-12T17:56:34.008Z,99768.12
2022-09-12T17:59:13.734Z,99767.11
2022-09-12T18:02:02.261Z,99764.37
2022-09-12T18:04:42.001Z,99763.71
2022-09-12T18:07:20.639Z,99762.91
2022-09-12T18:09:56.112Z,99763.25
2022-09-12T18:12:25.541Z,99763.34
2022-09-12T18:14:57.048Z,99761.77
2022-09-12T18:17:47.450Z,99761.41
2022-09-12T18:20:17.988Z,99758.19
2022-09-12T18:22:54.034Z,99758.61
2022-09-12T18:25:30.413Z,99757.83
2022-09-12T18:28:07.230Z,99754.38
2022-09-12T18:30:37.601Z,99752.11
2022-09-12T18:33:10.793Z,99752.58
2022-09-12T18:35:39.265Z,99749.44
2022-09-12T18:38:16.674Z,99755.46
2022-09-12T18:40:51.516Z,99752.77
2022-09-12T18:43:29.543Z,99749.23
2022-09-12T18:46:04.908Z,99752.16
2022-09-12T18:48:37.977Z,99754.10
2022-09-12T18:51:11.583Z,99750.57
2022-09-12T18:53:40.366Z,99751.73
2022-09-12T18:56:16.169Z,99749.59
2022-09-12T18:58:47.314Z,99745.26
2022-09-12T19:01:28.179Z,99746.48
2022-09-12T19:04:00.137Z,99744.84
2022-09-12T19:06:34.668Z,99744.56
2022-09-12T19:09:08.411Z,99745.64
2022-09-12T19:11:39.781Z,99739.36
2022-09-12T19:14:08.819Z,99743.23
2022-09-12T19:16:37.663Z,99737.29
2022-09-12T19:19:06.503Z,99734.14
2022-09-12T19:21:38.171Z,99733.38
2022-09-12T19:24:10.464Z,99733.65
2022-09-12T19:26:42.417Z,99735.03
2022-09-12T19:29:19.121Z,99734.17
2022-09-12T19:31:48.052Z,99736.80
2022-09-12T19:34:19.561Z,99730.55
2022-09-12T19:36:52.742Z,99733.67
2022-09-12T19:39:24.188Z,99731.70
2022-09-12T19:41:52.785Z,99735.63
2022-09-12T19:44:27.286Z,99733.05
2022-09-12T19:46:55.964Z,99735.63
2022-09-12T19:49:25.171Z,99734.50
2022-09-12T19:51:53.526Z,99732.14
2022-09-12T19:54:25.119Z,99729.08
2022-09-12T19:56:55.871Z,99731.52
2022-09-12T19:59:26.872Z,99728.07
2022-09-12T20:01:55.889Z,99730.30
2022-09-12T20:04:24.722Z,99728.90
2022-09-12T20:06:57.029Z,99735.27
2022-09-12T20:09:25.490Z,99733.44
2022-09-12T20:11:53.887Z,99733.66
2022-09-12T20:14:22.446Z,99731.73
2022-09-12T20:16:51.435Z,99730.90
2022-09-12T20:19:20.455Z,99728.31
2022-09-12T20:21:48.966Z,99724.91
2022-09-12T20:24:19.426Z,99727.14
2022-09-12T20:26:47.830Z,99721.48
2022-09-12T20:29:16.735Z,99722.36
2022-09-12T20:31:45.255Z,99719.30
2022-09-12T20:34:17.039Z,99717.88
2022-09-12T20:36:45.873Z,99712.18
2022-09-12T20:39:17.328Z,99707.54
2022-09-12T20:41:47.287Z,99706.16
2022-09-12T20:44:18.182Z,99702.83
2022-09-12T20:46:47.166Z,99702.95
2022-09-12T20:49:15.800Z,99701.43
2022-09-12T20:51:48.709Z,99696.41
2022-09-12T20:54:17.690Z,99696.06
2022-09-12T20:56:49.635Z,99694.17
2022-09-12T20:59:21.100Z,99698.12
2022-09-12T21:01:49.603Z,99696.12
2022-09-12T21:04:19.289Z,99692.44
2022-09-12T21:06:48.086Z,99693.70
2022-09-12T21:09:16.444Z,99693.17
2022-09-12T21:11:50.542Z,99694.05
2022-09-12T21:14:19.155Z,99694.60
2022-09-12T21:16:49.907Z,99692.90
2022-09-12T21:19:18.368Z,99688.44
2022-09-12T21:21:55.733Z,99688.95
2022-09-12T21:24:30.364Z,99694.98
2022-09-12T21:27:03.494Z,99692.55
2022-09-12T21:29:35.830Z,99692.34
2022-09-12T21:32:10.015Z,99693.21
2022-09-12T21:34:42.066Z,99691.11
2022-09-12T21:37:10.325Z,99688.79
2022-09-12T21:39:42.501Z,99684.04
2022-09-12T21:42:10.778Z,99677.33
2022-09-12T21:44:39.470Z,99675.69
2022-09-12T21:47:10.880Z,99677.11
2022-09-12T21:49:39.128Z,99675.27
2022-09-12T21:52:08.260Z,99675.86
2022-09-12T21:54:42.668Z,99674.14
2022-09-12T21:57:11.117Z,99674.34
2022-09-12T21:59:39.928Z,99674.84
2022-09-12T22:02:10.964Z,99672.36
2022-09-12T22:04:39.761Z,99668.00
2022-09-12T22:07:09.694Z,99662.19
2022-09-12T22:09:39.709Z,99658.58
2022-09-12T22:12:12.871Z,99654.19
2022-09-12T22:14:42.651Z,99652.08
2022-09-12T22:17:14.035Z,99649.15
2022-09-12T22:19:42.427Z,99646.99
2022-09-12T22:22:29.508Z,99649.45
2022-09-12T22:24:57.925Z,99646.89
2022-09-12T22:27:27.108Z,99651.91
2022-09-12T22:29:55.534Z,99648.27
2022-09-12T22:32:24.650Z,99648.41
2022-09-12T22:34:53.029Z,99642.86
2022-09-12T22:37:21.425Z,99645.52
2022-09-12T22:39:50.003Z,99644.46
2022-09-12T22:42:18.589Z,99642.64
2022-09-12T22:44:50.374Z,99638.22
2022-09-12T22:47:20.721Z,99638.17
2022-09-12T22:49:48.927Z,99636.92
2022-09-12T22:52:17.548Z,99629.07
2022-09-12T22:54:48.494Z,99631.57
2022-09-12T22:57:17.709Z,99628.55
2022-09-12T22:59:46.773Z,99619.05
2022-09-12T23:02:14.944Z,99618.27
2022-09-12T23:04:44.274Z,99610.52
2022-09-12T23:07:12.771Z,99612.37
2022-09-12T23:09:41.110Z,99612.72
2022-09-12T23:12:11.868Z,99613.73
2022-09-12T23:14:43.471Z,99610.67
2022-09-12T23:17:14.977Z,99606.57
2022-09-12T23:19:43.212Z,99604.14
2022-09-12T23:22:12.041Z,99603.61
2022-09-12T23:24:40.606Z,99603.13
2022-09-12T23:27:16.047Z,99600.34
2022-09-12T23:29:44.876Z,99599.44
2022-09-12T23:32:22.490Z,99603.72
2022-09-12T23:34:53.579Z,99603.10
2022-09-12T23:37:21.893Z,99607.20
2022-09-12T23:39:50.564Z,99603.15
2022-09-12T23:42:22.188Z,99602.85
2022-09-12T23:44:50.689Z,99601.69
2022-09-12T23:47:19.084Z,99599.34
2022-09-12T23:49:50.223Z,99595.58
2022-09-12T23:52:21.087Z,99591.56
2022-09-12T23:54:52.884Z,99588.84
2022-09-12T23:57:21.778Z,99585.85
2022-09-12T23:59:54.362Z,99582.25
